sensor_id;sensor_type;location;lat;lon;timestamp;P1;durP1;ratioP1;P2;durP2;ratioP2
21030;SDS011;61072;47.808;7.636;2022-11-14T07:01:13;33.50;;;22.23;;
21030;SDS011;61072;47.808;7.636;2022-11-14T07:03:41;34.05;;;23.77;;
21030;SDS011;61072;47.808;7.636;2022-11-14T07:06:09;32.92;;;21.30;;
21030;SDS011;61072;47.808;7.636;2022-11-14T07:08:36;29.00;;;20.25;;
21030;SDS011;61072;47.808;7.636;2022-11-14T07:11:08;27.10;;;18.33;;
21030;SDS011;61072;47.808;7.636;2022-11-14T07:13:36;26.15;;;18.77;;
21030;SDS011;61072;47.808;7.636;2022-11-14T07:16:04;26.33;;;18.52;;
21030;SDS011;61072;47.808;7.636;2022-11-14T07:18:31;29.08;;;20.35;;
21030;SDS011;61072;47.808;7.636;2022-11-14T07:21:04;25.33;;;18.40;;
21030;SDS011;61072;47.808;7.636;2022-11-14T07:23:32;27.33;;;19.00;;
21030;SDS011;61072;47.808;7.636;2022-11-14T07:26:03;25.38;;;19.02;;
21030;SDS011;61072;47.808;7.636;2022-11-14T07:28:34;30.20;;;20.63;;
21030;SDS011;61072;47.808;7.636;2022-11-14T07:31:03;30.23;;;19.95;;
21030;SDS011;61072;47.808;7.636;2022-11-14T07:33:30;31.73;;;21.00;;
21030;SDS011;61072;47.808;7.636;2022-11-14T07:35:58;31.38;;;24.67;;
21030;SDS011;61072;47.808;7.636;2022-11-14T07:38:25;33.05;;;25.10;;
21030;SDS011;61072;47.808;7.636;2022-11-14T07:40:55;33.45;;;24.13;;
21030;SDS011;61072;47.808;7.636;2022-11-14T07:43:26;29.35;;;21.65;;
21030;SDS011;61072;47.808;7.636;2022-11-14T07:45:53;29.27;;;20.17;;
21030;SDS011;61072;47.808;7.636;2022-11-14T07:48:23;26.20;;;20.75;;
21030;SDS011;61072;47.808;7.636;2022-11-14T07:50:50;26.83;;;18.98;;
21030;SDS011;61072;47.808;7.636;2022-11-14T07:53:17;30.52;;;19.75;;
21030;SDS011;61072;47.808;7.636;2022-11-14T07:55:44;24.95;;;18.15;;
21030;SDS011;61072;47.808;7.636;2022-11-14T07:58:11;24.98;;;19.00;;
21030;SDS011;61072;47.808;7.636;2022-11-14T08:00:38;28.20;;;19.67;;
21030;SDS011;61072;47.808;7.636;2022-11-14T08:03:06;26.67;;;18.40;;
21030;SDS011;61072;47.808;7.636;2022-11-14T08:05:33;24.45;;;16.95;;
21030;SDS011;61072;47.808;7.636;2022-11-14T08:08:00;30.48;;;19.83;;
21030;SDS011;61072;47.808;7.636;2022-11-14T08:10:27;24.77;;;17.88;;
21030;SDS011;61072;47.808;7.636;2022-11-14T08:12:59;32.97;;;21.52;;
21030;SDS011;61072;47.808;7.636;2022-11-14T08:15:48;34.67;;;22.70;;
21030;SDS011;61072;47.808;7.636;2022-11-14T08:18:15;50.78;;;32.88;;
21030;SDS011;61072;47.808;7.636;2022-11-14T08:20:41;42.00;;;28.42;;
21030;SDS011;61072;47.808;7.636;2022-11-14T08:23:09;44.95;;;29.63;;
21030;SDS011;61072;47.808;7.636;2022-11-14T08:25:36;39.45;;;25.15;;
21030;SDS011;61072;47.808;7.636;2022-11-14T08:28:03;25.10;;;16.17;;
21030;SDS011;61072;47.808;7.636;2022-11-14T08:30:30;30.90;;;21.40;;
21030;SDS011;61072;47.808;7.636;2022-11-14T08:32:59;22.50;;;16.30;;
21030;SDS011;61072;47.808;7.636;2022-11-14T08:35:27;25.00;;;16.45;;
21030;SDS011;61072;47.808;7.636;2022-11-14T08:37:54;19.15;;;15.82;;
21030;SDS011;61072;47.808;7.636;2022-11-14T08:40:21;23.13;;;17.23;;
21030;SDS011;61072;47.808;7.636;2022-11-14T08:42:48;21.38;;;15.20;;
21030;SDS011;61072;47.808;7.636;2022-11-14T08:45:14;13.65;;;11.30;;
21030;SDS011;61072;47.808;7.636;2022-11-14T08:47:41;15.73;;;11.02;;
21030;SDS011;61072;47.808;7.636;2022-11-14T08:50:08;16.65;;;10.32;;
21030;SDS011;61072;47.808;7.636;2022-11-14T08:52:35;17.15;;;11.65;;
21030;SDS011;61072;47.808;7.636;2022-11-14T08:55:01;34.78;;;28.85;;
21030;SDS011;61072;47.808;7.636;2022-11-14T08:57:28;45.60;;;40.75;;
21030;SDS011;61072;47.808;7.636;2022-11-14T08:59:55;50.50;;;44.88;;
21030;SDS011;61072;47.808;7.636;2022-11-14T09:02:21;34.17;;;27.60;;
21030;SDS011;61072;47.808;7.636;2022-11-14T09:04:48;34.28;;;30.77;;
21030;SDS011;61072;47.808;7.636;2022-11-14T09:07:15;42.20;;;37.65;;
21030;SDS011;61072;47.808;7.636;2022-11-14T09:09:42;27.20;;;22.60;;
21030;SDS011;61072;47.808;7.636;2022-11-14T09:12:09;20.60;;;14.85;;
21030;SDS011;61072;47.808;7.636;2022-11-14T09:14:35;23.98;;;20.23;;
21030;SDS011;61072;47.808;7.636;2022-11-14T09:17:02;30.23;;;25.42;;
21030;SDS011;61072;47.808;7.636;2022-11-14T09:19:31;21.02;;;18.77;;
21030;SDS011;61072;47.808;7.636;2022-11-14T09:21:58;14.07;;;10.25;;
21030;SDS011;61072;47.808;7.636;2022-11-14T09:24:24;6.80;;;4.22;;
21030;SDS011;61072;47.808;7.636;2022-11-14T09:26:51;7.30;;;4.20;;
21030;SDS011;61072;47.808;7.636;2022-11-14T09:29:22;13.32;;;11.93;;
21030;SDS011;61072;47.808;7.636;2022-11-14T09:31:50;17.08;;;14.30;;
21030;SDS011;61072;47.808;7.636;2022-11-14T09:34:17;16.20;;;12.88;;
21030;SDS011;61072;47.808;7.636;2022-11-14T09:36:44;17.05;;;12.57;;
21030;SDS011;61072;47.808;7.636;2022-11-14T09:39:11;18.77;;;12.02;;
21030;SDS011;61072;47.808;7.636;2022-11-14T09:41:49;7.78;;;4.80;;
21030;SDS011;61072;47.808;7.636;2022-11-14T09:44:45;5.80;;;2.90;;
21030;SDS011;61072;47.808;7.636;2022-11-14T09:47:19;4.03;;;2.55;;
21030;SDS011;61072;47.808;7.636;2022-11-14T09:49:53;4.20;;;2.40;;
21030;SDS011;61072;47.808;7.636;2022-11-14T09:55:12;4.75;;;1.90;;
21030;SDS011;61072;47.808;7.636;2022-11-14T09:57:43;3.70;;;2.15;;
21030;SDS011;61072;47.808;7.636;2022-11-14T10:00:11;4.10;;;1.85;;
21030;SDS011;61072;47.808;7.636;2022-11-14T10:05:34;3.78;;;2.13;;
21030;SDS011;61072;47.808;7.636;2022-11-14T10:10:57;5.82;;;2.03;;
21030;SDS011;61072;47.808;7.636;2022-11-14T10:27:15;4.10;;;2.47;;
21030;SDS011;61072;47.808;7.636;2022-11-14T10:30:13;5.95;;;1.83;;
21030;SDS011;61072;47.808;7.636;2022-11-14T10:32:48;3.60;;;2.35;;
21030;SDS011;61072;47.808;7.636;2022-11-14T10:35:30;4.20;;;2.17;;
21030;SDS011;61072;47.808;7.636;2022-11-14T10:40:40;6.82;;;2.55;;
21030;SDS011;61072;47.808;7.636;2022-11-14T10:46:01;3.95;;;1.95;;
21030;SDS011;61072;47.808;7.636;2022-11-14T10:48:37;4.85;;;1.80;;
21030;SDS011;61072;47.808;7.636;2022-11-14T10:51:18;5.43;;;2.20;;
21030;SDS011;61072;47.808;7.636;2022-11-14T10:56:44;2.80;;;1.58;;
21030;SDS011;61072;47.808;7.636;2022-11-14T10:59:12;4.60;;;2.17;;
21030;SDS011;61072;47.808;7.636;2022-11-14T11:01:40;8.25;;;2.60;;
21030;SDS011;61072;47.808;7.636;2022-11-14T11:09:35;3.28;;;1.73;;
21030;SDS011;61072;47.808;7.636;2022-11-14T11:12:35;5.05;;;1.70;;
21030;SDS011;61072;47.808;7.636;2022-11-14T11:15:21;6.50;;;2.00;;
21030;SDS011;61072;47.808;7.636;2022-11-14T11:18:04;5.45;;;2.53;;
21030;SDS011;61072;47.808;7.636;2022-11-14T11:21:08;6.03;;;1.95;;
21030;SDS011;61072;47.808;7.636;2022-11-14T11:23:47;4.75;;;2.05;;
21030;SDS011;61072;47.808;7.636;2022-11-14T11:34:24;7.10;;;2.15;;
21030;SDS011;61072;47.808;7.636;2022-11-14T11:36:54;4.73;;;2.10;;
21030;SDS011;61072;47.808;7.636;2022-11-14T11:40:02;4.40;;;2.15;;
21030;SDS011;61072;47.808;7.636;2022-11-14T11:42:33;3.20;;;2.28;;
21030;SDS011;61072;47.808;7.636;2022-11-14T11:45:35;5.50;;;1.90;;
21030;SDS011;61072;47.808;7.636;2022-11-14T11:48:07;5.53;;;1.88;;
21030;SDS011;61072;47.808;7.636;2022-11-14T11:50:34;4.40;;;1.63;;
21030;SDS011;61072;47.808;7.636;2022-11-14T11:53:18;3.30;;;2.13;;
21030;SDS011;61072;47.808;7.636;2022-11-14T11:55:50;5.10;;;2.45;;
21030;SDS011;61072;47.808;7.636;2022-11-14T12:00:52;2.53;;;2.00;;
21030;SDS011;61072;47.808;7.636;2022-11-14T12:03:22;2.60;;;1.77;;
21030;SDS011;61072;47.808;7.636;2022-11-14T12:11:42;3.72;;;1.98;;
21030;SDS011;61072;47.808;7.636;2022-11-14T12:26:08;7.03;;;2.08;;
21030;SDS011;61072;47.808;7.636;2022-11-14T12:31:33;5.15;;;1.75;;
21030;SDS011;61072;47.808;7.636;2022-11-14T12:34:03;6.00;;;2.05;;
21030;SDS011;61072;47.808;7.636;2022-11-14T12:36:42;5.83;;;1.47;;
21030;SDS011;61072;47.808;7.636;2022-11-14T12:39:19;3.03;;;1.67;;
21030;SDS011;61072;47.808;7.636;2022-11-14T12:41:50;3.50;;;1.52;;
21030;SDS011;61072;47.808;7.636;2022-11-14T12:52:03;12.20;;;2.42;;
21030;SDS011;61072;47.808;7.636;2022-11-14T12:54:50;4.72;;;2.33;;
21030;SDS011;61072;47.808;7.636;2022-11-14T12:57:19;3.67;;;1.85;;
21030;SDS011;61072;47.808;7.636;2022-11-14T13:00:20;8.48;;;2.20;;
21030;SDS011;61072;47.808;7.636;2022-11-14T13:03:08;5.00;;;2.10;;
21030;SDS011;61072;47.808;7.636;2022-11-14T13:06:30;7.45;;;2.55;;
21030;SDS011;61072;47.808;7.636;2022-11-14T13:08:53;3.47;;;1.65;;
21030;SDS011;61072;47.808;7.636;2022-11-14T13:11:44;2.53;;;1.70;;
21030;SDS011;61072;47.808;7.636;2022-11-14T13:14:46;4.30;;;1.83;;
21030;SDS011;61072;47.808;7.636;2022-11-14T13:17:33;2.35;;;1.80;;
21030;SDS011;61072;47.808;7.636;2022-11-14T13:20:26;4.13;;;1.70;;
21030;SDS011;61072;47.808;7.636;2022-11-14T13:28:45;5.20;;;1.92;;
21030;SDS011;61072;47.808;7.636;2022-11-14T13:33:42;3.88;;;1.90;;
21030;SDS011;61072;47.808;7.636;2022-11-14T13:36:33;6.13;;;2.20;;
21030;SDS011;61072;47.808;7.636;2022-11-14T13:54:53;2.60;;;1.73;;
21030;SDS011;61072;47.808;7.636;2022-11-14T14:00:07;3.72;;;1.98;;
21030;SDS011;61072;47.808;7.636;2022-11-14T14:10:56;2.88;;;1.75;;
21030;SDS011;61072;47.808;7.636;2022-11-14T14:24:50;3.53;;;1.90;;
21030;SDS011;61072;47.808;7.636;2022-11-14T14:30:17;5.97;;;1.90;;
21030;SDS011;61072;47.808;7.636;2022-11-14T14:35:50;4.95;;;1.92;;
21030;SDS011;61072;47.808;7.636;2022-11-14T14:38:23;5.30;;;1.45;;
21030;SDS011;61072;47.808;7.636;2022-11-14T14:40:52;4.57;;;1.90;;
21030;SDS011;61072;47.808;7.636;2022-11-14T14:43:42;2.95;;;1.70;;
21030;SDS011;61072;47.808;7.636;2022-11-14T14:46:08;3.50;;;1.80;;
21030;SDS011;61072;47.808;7.636;2022-11-14T14:48:37;2.50;;;1.67;;
21030;SDS011;61072;47.808;7.636;2022-11-14T14:51:09;4.30;;;1.73;;
21030;SDS011;61072;47.808;7.636;2022-11-14T14:53:39;2.20;;;1.40;;
21030;SDS011;61072;47.808;7.636;2022-11-14T14:56:20;4.10;;;1.42;;
21030;SDS011;61072;47.808;7.636;2022-11-14T14:58:51;2.97;;;1.55;;
21030;SDS011;61072;47.808;7.636;2022-11-14T15:01:22;2.63;;;1.40;;
21030;SDS011;61072;47.808;7.636;2022-11-14T15:03:55;2.15;;;1.67;;
21030;SDS011;61072;47.808;7.636;2022-11-14T15:06:32;5.68;;;1.63;;
21030;SDS011;61072;47.808;7.636;2022-11-14T15:09:08;3.70;;;1.45;;
21030;SDS011;61072;47.808;7.636;2022-11-14T15:11:41;3.90;;;1.65;;
21030;SDS011;61072;47.808;7.636;2022-11-14T15:14:11;3.72;;;1.67;;
21030;SDS011;61072;47.808;7.636;2022-11-14T15:16:41;1.98;;;0.90;;
21030;SDS011;61072;47.808;7.636;2022-11-14T15:19:11;2.22;;;1.17;;
21030;SDS011;61072;47.808;7.636;2022-11-14T15:24:12;1.85;;;1.30;;
21030;SDS011;61072;47.808;7.636;2022-11-14T15:26:44;2.45;;;1.38;;
21030;SDS011;61072;47.808;7.636;2022-11-14T15:31:51;2.22;;;1.38;;
21030;SDS011;61072;47.808;7.636;2022-11-14T15:34:25;3.83;;;1.55;;
21030;SDS011;61072;47.808;7.636;2022-11-14T15:39:36;2.03;;;1.15;;
21030;SDS011;61072;47.808;7.636;2022-11-14T15:44:49;5.13;;;0.93;;
21030;SDS011;61072;47.808;7.636;2022-11-14T15:55:01;2.55;;;1.10;;
21030;SDS011;61072;47.808;7.636;2022-11-14T15:57:30;2.20;;;1.05;;
21030;SDS011;61072;47.808;7.636;2022-11-14T15:59:57;1.63;;;1.02;;
21030;SDS011;61072;47.808;7.636;2022-11-14T16:02:25;6.00;;;1.40;;
21030;SDS011;61072;47.808;7.636;2022-11-14T16:04:54;1.33;;;1.00;;
21030;SDS011;61072;47.808;7.636;2022-11-14T16:07:22;3.92;;;1.25;;
21030;SDS011;61072;47.808;7.636;2022-11-14T16:09:49;1.75;;;1.17;;
21030;SDS011;61072;47.808;7.636;2022-11-14T16:12:16;2.53;;;1.40;;
21030;SDS011;61072;47.808;7.636;2022-11-14T16:14:43;1.63;;;1.30;;
21030;SDS011;61072;47.808;7.636;2022-11-14T16:17:13;2.75;;;1.13;;
21030;SDS011;61072;47.808;7.636;2022-11-14T16:19:42;3.38;;;1.20;;
21030;SDS011;61072;47.808;7.636;2022-11-14T16:22:12;1.90;;;1.08;;
21030;SDS011;61072;47.808;7.636;2022-11-14T16:24:42;3.10;;;1.40;;
21030;SDS011;61072;47.808;7.636;2022-11-14T16:27:09;2.40;;;1.13;;
21030;SDS011;61072;47.808;7.636;2022-11-14T16:29:36;4.65;;;1.40;;
21030;SDS011;61072;47.808;7.636;2022-11-14T16:32:03;1.83;;;1.00;;
21030;SDS011;61072;47.808;7.636;2022-11-14T16:34:29;1.83;;;1.13;;
21030;SDS011;61072;47.808;7.636;2022-11-14T16:36:57;2.65;;;1.48;;
21030;SDS011;61072;47.808;7.636;2022-11-14T16:39:26;4.00;;;1.55;;
21030;SDS011;61072;47.808;7.636;2022-11-14T16:41:55;1.73;;;1.30;;
21030;SDS011;61072;47.808;7.636;2022-11-14T16:44:26;2.00;;;1.50;;
21030;SDS011;61072;47.808;7.636;2022-11-14T16:46:53;1.25;;;1.15;;
21030;SDS011;61072;47.808;7.636;2022-11-14T16:49:20;3.85;;;1.40;;
21030;SDS011;61072;47.808;7.636;2022-11-14T16:51:47;4.80;;;1.30;;
21030;SDS011;61072;47.808;7.636;2022-11-14T16:54:16;2.30;;;1.73;;
21030;SDS011;61072;47.808;7.636;2022-11-14T16:56:44;2.35;;;1.30;;
21030;SDS011;61072;47.808;7.636;2022-11-14T16:59:11;2.13;;;1.65;;
21030;SDS011;61072;47.808;7.636;2022-11-14T17:01:38;2.35;;;1.73;;
21030;SDS011;61072;47.808;7.636;2022-11-14T17:04:05;4.30;;;1.58;;
21030;SDS011;61072;47.808;7.636;2022-11-14T17:06:32;5.05;;;2.67;;
21030;SDS011;61072;47.808;7.636;2022-11-14T17:08:59;4.50;;;1.95;;
21030;SDS011;61072;47.808;7.636;2022-11-14T17:11:26;2.45;;;1.23;;
21030;SDS011;61072;47.808;7.636;2022-11-14T17:13:53;6.82;;;2.17;;
21030;SDS011;61072;47.808;7.636;2022-11-14T17:16:21;4.25;;;2.17;;
21030;SDS011;61072;47.808;7.636;2022-11-14T17:18:51;5.25;;;1.65;;
21030;SDS011;61072;47.808;7.636;2022-11-14T17:21:20;3.33;;;1.55;;
21030;SDS011;61072;47.808;7.636;2022-11-14T17:23:54;6.20;;;2.78;;
21030;SDS011;61072;47.808;7.636;2022-11-14T17:26:22;4.07;;;2.35;;
21030;SDS011;61072;47.808;7.636;2022-11-14T17:28:49;5.22;;;1.98;;
21030;SDS011;61072;47.808;7.636;2022-11-14T17:31:16;5.93;;;2.00;;
21030;SDS011;61072;47.808;7.636;2022-11-14T17:33:42;3.55;;;1.65;;
21030;SDS011;61072;47.808;7.636;2022-11-14T17:36:14;2.70;;;1.10;;
21030;SDS011;61072;47.808;7.636;2022-11-14T17:38:41;4.05;;;1.20;;
21030;SDS011;61072;47.808;7.636;2022-11-14T17:41:08;2.70;;;1.20;;
21030;SDS011;61072;47.808;7.636;2022-11-14T17:43:35;1.55;;;1.10;;
21030;SDS011;61072;47.808;7.636;2022-11-14T17:48:40;6.68;;;1.83;;
21030;SDS011;61072;47.808;7.636;2022-11-14T17:51:09;4.82;;;1.95;;
21030;SDS011;61072;47.808;7.636;2022-11-14T17:53:37;1.95;;;1.50;;
21030;SDS011;61072;47.808;7.636;2022-11-14T17:56:04;3.95;;;1.25;;
21030;SDS011;61072;47.808;7.636;2022-11-14T17:58:32;4.00;;;1.52;;
21030;SDS011;61072;47.808;7.636;2022-11-14T18:01:00;2.65;;;1.50;;
21030;SDS011;61072;47.808;7.636;2022-11-14T18:03:27;3.20;;;1.40;;
21030;SDS011;61072;47.808;7.636;2022-11-14T18:06:03;3.70;;;1.60;;
21030;SDS011;61072;47.808;7.636;2022-11-14T18:08:31;3.90;;;1.52;;
21030;SDS011;61072;47.808;7.636;2022-11-14T18:10:59;1.48;;;1.10;;
21030;SDS011;61072;47.808;7.636;2022-11-14T18:13:27;2.08;;;1.33;;
21030;SDS011;61072;47.808;7.636;2022-11-14T18:15:54;2.17;;;1.25;;
21030;SDS011;61072;47.808;7.636;2022-11-14T18:18:25;3.92;;;1.30;;
21030;SDS011;61072;47.808;7.636;2022-11-14T18:20:51;3.88;;;1.50;;
21030;SDS011;61072;47.808;7.636;2022-11-14T18:23:18;4.25;;;1.38;;
21030;SDS011;61072;47.808;7.636;2022-11-14T18:25:45;3.45;;;1.58;;
21030;SDS011;61072;47.808;7.636;2022-11-14T18:28:11;4.00;;;1.60;;
21030;SDS011;61072;47.808;7.636;2022-11-14T18:30:38;3.53;;;1.65;;
21030;SDS011;61072;47.808;7.636;2022-11-14T18:33:07;5.45;;;1.20;;
21030;SDS011;61072;47.808;7.636;2022-11-14T18:35:34;3.40;;;1.10;;
21030;SDS011;61072;47.808;7.636;2022-11-14T18:38:01;2.63;;;1.08;;
21030;SDS011;61072;47.808;7.636;2022-11-14T18:40:27;2.88;;;1.40;;
21030;SDS011;61072;47.808;7.636;2022-11-14T18:42:54;3.28;;;1.00;;
21030;SDS011;61072;47.808;7.636;2022-11-14T18:45:21;1.88;;;1.20;;
21030;SDS011;61072;47.808;7.636;2022-11-14T18:47:48;2.70;;;1.00;;
21030;SDS011;61072;47.808;7.636;2022-11-14T18:50:14;1.83;;;1.30;;
21030;SDS011;61072;47.808;7.636;2022-11-14T18:52:41;3.10;;;1.30;;
21030;SDS011;61072;47.808;7.636;2022-11-14T18:55:08;5.50;;;1.50;;
21030;SDS011;61072;47.808;7.636;2022-11-14T18:57:35;3.53;;;1.27;;
21030;SDS011;61072;47.808;7.636;2022-11-14T19:00:02;2.45;;;1.13;;
21030;SDS011;61072;47.808;7.636;2022-11-14T19:02:30;2.38;;;1.20;;
21030;SDS011;61072;47.808;7.636;2022-11-14T19:04:57;3.45;;;1.10;;
21030;SDS011;61072;47.808;7.636;2022-11-14T19:07:23;3.30;;;1.38;;
21030;SDS011;61072;47.808;7.636;2022-11-14T19:09:51;4.70;;;1.80;;
21030;SDS011;61072;47.808;7.636;2022-11-14T19:12:18;2.55;;;1.90;;
21030;SDS011;61072;47.808;7.636;2022-11-14T19:14:47;3.97;;;1.80;;
21030;SDS011;61072;47.808;7.636;2022-11-14T19:17:15;1.73;;;1.10;;
21030;SDS011;61072;47.808;7.636;2022-11-14T19:19:47;3.50;;;1.70;;
21030;SDS011;61072;47.808;7.636;2022-11-14T19:22:15;3.88;;;1.70;;
21030;SDS011;61072;47.808;7.636;2022-11-14T19:24:42;4.03;;;1.80;;
21030;SDS011;61072;47.808;7.636;2022-11-14T19:27:12;3.93;;;1.67;;
21030;SDS011;61072;47.808;7.636;2022-11-14T19:29:39;4.97;;;2.17;;
21030;SDS011;61072;47.808;7.636;2022-11-14T19:32:06;3.95;;;2.63;;
21030;SDS011;61072;47.808;7.636;2022-11-14T19:34:33;6.80;;;3.55;;
21030;SDS011;61072;47.808;7.636;2022-11-14T19:37:00;8.45;;;4.90;;
21030;SDS011;61072;47.808;7.636;2022-11-14T19:39:27;6.28;;;3.03;;
21030;SDS011;61072;47.808;7.636;2022-11-14T19:41:54;7.13;;;3.05;;
21030;SDS011;61072;47.808;7.636;2022-11-14T19:44:20;5.38;;;3.20;;
21030;SDS011;61072;47.808;7.636;2022-11-14T19:46:47;6.22;;;3.05;;
21030;SDS011;61072;47.808;7.636;2022-11-14T19:49:14;5.60;;;2.88;;
21030;SDS011;61072;47.808;7.636;2022-11-14T19:51:40;5.75;;;3.28;;
